Time;durP1;ratioP1;P1;durP2;ratioP2;P2;SDS_P1;SDS_P2;PMS_P1;PMS_P2;Temp;Humidity;BMP_temperature;BMP_pressure;BME280_temperature;BME280_humidity;BME280_pressure;Samples;Min_cycle;Max_cycle;Signal;HPM_P1;HPM_P2
2022/02/01 00:02:37;;;;;;;66.85;35.38;;;;;;;0.53;79.98;95508.38;1740961;82;21053;-80
2022/02/01 00:10:18;;;;;;;59.83;34.20;;;;;;;0.56;80.28;95509.84;1740988;82;21052;-80
2022/02/01 00:15:39;;;;;;;53.95;30.65;;;;;;;0.55;80.50;95512.06;1740916;82;21378;-80
2022/02/01 00:20:36;;;;;;;52.93;28.50;;;;;;;0.55;80.50;95512.06;1740937;82;20929;-80
2022/02/01 00:38:58;;;;;;;56.10;31.93;;;;;;;0.48;80.93;95507.98;1742279;81;21076;-80
2022/02/01 00:41:12;;;;;;;58.10;32.40;;;;;;;0.50;81.01;95515.05;1734842;82;20934;-80
2022/02/01 00:43:39;;;;;;;58.50;30.90;;;;;;;0.50;80.95;95521.45;1740898;82;21363;-80
2022/02/01 00:46:05;;;;;;;54.63;32.90;;;;;;;0.51;80.95;95515.39;1740971;82;21040;-80
2022/02/01 00:48:31;;;;;;;55.20;30.62;;;;;;;0.53;81.10;95521.16;1740948;82;21032;-80
2022/02/01 00:50:57;;;;;;;59.45;33.98;;;;;;;0.54;81.16;95509.98;1740860;82;20980;-80
2022/02/01 00:53:27;;;;;;;60.40;30.45;;;;;;;0.53;81.10;95521.16;1740842;82;20953;-80
2022/02/01 00:55:50;;;;;;;63.08;32.98;;;;;;;0.53;81.09;95522.91;1740520;82;21391;-80
2022/02/01 00:58:17;;;;;;;62.67;31.95;;;;;;;0.49;81.07;95519.03;1740955;81;21009;-80
2022/02/01 01:00:43;;;;;;;61.13;33.65;;;;;;;0.41;81.04;95515.08;1740872;82;20929;-80
2022/02/01 01:03:09;;;;;;;65.17;34.15;;;;;;;0.40;81.21;95521.14;1741077;82;21059;-80
2022/02/01 01:05:35;;;;;;;55.60;31.35;;;;;;;0.37;81.13;95516.31;1740895;81;21375;-80
2022/02/01 01:08:02;;;;;;;60.70;30.32;;;;;;;0.32;81.16;95523.09;1740721;82;21020;-80
2022/02/01 01:10:27;;;;;;;56.45;29.48;;;;;;;0.32;81.22;95529.96;1741021;82;20972;-80
2022/02/01 01:13:20;;;;;;;54.60;31.12;;;;;;;0.27;81.13;95535.02;1740890;82;21427;-80
2022/02/01 01:15:35;;;;;;;51.05;29.00;;;;;;;0.27;81.28;95535.50;1737046;82;21328;-80
2022/02/01 01:45:07;;;;;;;65.57;33.58;;;;;;;0.27;81.70;95549.55;1740969;82;21379;-80
2022/02/01 01:53:16;;;;;;;64.90;32.53;;;;;;;0.27;81.81;95550.36;1741048;82;21068;-80
2022/02/01 01:55:52;;;;;;;70.32;34.80;;;;;;;0.22;81.88;95564.02;1740437;81;20973;-80
2022/02/01 01:58:20;;;;;;;72.00;33.67;;;;;;;0.23;81.96;95564.83;1740965;82;21376;-80
2022/02/01 02:03:24;;;;;;;75.95;37.55;;;;;;;0.23;81.96;95575.05;1740867;82;21379;-80
2022/02/01 02:05:50;;;;;;;77.90;38.17;;;;;;;0.25;82.09;95573.16;1740760;82;21009;-80
2022/02/01 02:08:16;;;;;;;73.00;38.28;;;;;;;0.25;82.06;95580.35;1740987;82;20964;-80
2022/02/01 02:15:56;;;;;;;77.95;37.75;;;;;;;0.15;81.92;95587.69;1740941;82;20925;-80
2022/02/01 02:18:18;;;;;;;83.42;41.30;;;;;;;0.10;82.08;95598.80;1736731;82;20976;-80
2022/02/01 02:20:51;;;;;;;87.17;41.98;;;;;;;0.03;82.07;95603.66;1740716;82;20965;-80
2022/02/01 02:23:17;;;;;;;83.10;42.03;;;;;;;0.01;82.17;95607.30;1741006;82;20992;-80
2022/02/01 02:25:43;;;;;;;83.65;41.05;;;;;;;-0.02;82.27;95613.45;1740901;82;21036;-80
2022/02/01 02:28:12;;;;;;;99.03;45.25;;;;;;;-0.05;82.45;95618.36;1741126;81;21325;-80
2022/02/01 02:30:36;;;;;;;87.02;42.03;;;;;;;-0.10;82.63;95614.61;1740947;81;20930;-80
2022/02/01 02:33:05;;;;;;;89.55;42.25;;;;;;;-0.15;82.63;95613.75;1740998;82;21451;-80
2022/02/01 02:35:36;;;;;;;90.15;45.60;;;;;;;-0.13;82.78;95616.16;1740850;81;21332;-80
2022/02/01 02:38:11;;;;;;;85.38;41.37;;;;;;;-0.04;83.09;95610.23;1711410;83;20953;-80
2022/02/01 02:40:57;;;;;;;;;;;;;;;-0.10;82.91;95614.14;1734576;83;21455;-80
2022/02/01 02:45:44;;;;;;;80.45;40.40;;;;;;;-0.19;83.16;95616.68;1732943;82;21001;-80
2022/02/01 02:48:12;;;;;;;94.45;44.67;;;;;;;-0.22;83.10;95629.25;1712207;83;20957;-80
2022/02/01 02:50:38;;;;;;;88.52;43.52;;;;;;;-0.23;83.19;95634.02;1733002;82;20988;-80
2022/02/01 02:53:04;;;;;;;89.40;45.15;;;;;;;-0.22;83.28;95628.45;1732916;82;21000;-80
2022/02/01 02:55:31;;;;;;;79.07;42.10;;;;;;;-0.26;83.27;95636.84;1733015;82;20954;-80
2022/02/01 02:57:57;;;;;;;80.30;43.42;;;;;;;-0.33;83.38;95640.41;1733056;82;20974;-81
2022/02/01 03:00:23;;;;;;;78.92;41.20;;;;;;;-0.38;83.36;95634.88;1732991;82;20996;-80
2022/02/01 03:02:48;;;;;;;81.32;40.83;;;;;;;-0.36;83.55;95647.03;1732960;82;21056;-80
2022/02/01 03:05:14;;;;;;;89.80;43.28;;;;;;;-0.32;83.58;95651.43;1733084;82;20997;-80
2022/02/01 03:07:40;;;;;;;83.05;41.80;;;;;;;-0.27;83.63;95664.59;1733083;82;21265;-80
2022/02/01 03:10:06;;;;;;;66.80;33.88;;;;;;;-0.26;83.64;95670.50;1712338;83;20986;-80
2022/02/01 03:12:57;;;;;;;86.35;43.83;;;;;;;-0.26;83.71;95671.78;1733073;82;20989;-80
2022/02/01 03:15:20;;;;;;;82.67;41.08;;;;;;;-0.31;83.58;95669.63;1728144;82;21000;-80
2022/02/01 03:19:49;;;;;;;68.37;34.73;;;;;;;-0.29;83.59;95675.41;1728527;81;21073;-79
2022/02/01 03:19:57;;;;;;;83.27;42.23;;;;;;;-0.30;83.96;95672.52;1726600;83;20962;-80
2022/02/01 03:22:28;;;;;;;91.08;45.25;;;;;;;-0.36;83.73;95675.59;1732454;82;20954;-80
2022/02/01 03:24:56;;;;;;;83.37;43.20;;;;;;;-0.34;83.87;95677.06;1732880;82;21060;-80
2022/02/01 03:27:22;;;;;;;86.70;43.92;;;;;;;-0.34;83.79;95683.44;1732833;83;21064;-80
2022/02/01 03:29:48;;;;;;;73.50;39.92;;;;;;;-0.32;83.82;95685.42;1733004;82;20981;-80
2022/02/01 03:32:13;;;;;;;86.42;44.70;;;;;;;-0.28;83.92;95688.52;1711874;83;20949;-80
2022/02/01 03:34:40;;;;;;;87.37;42.33;;;;;;;-0.30;83.91;95686.56;1732726;82;21076;-80
2022/02/01 03:37:06;;;;;;;85.90;42.20;;;;;;;-0.28;83.87;95688.52;1717875;82;20949;-80
2022/02/01 03:39:32;;;;;;;89.40;41.90;;;;;;;-0.24;83.83;95690.33;1719855;82;20964;-80
2022/02/01 03:41:58;;;;;;;80.75;42.33;;;;;;;-0.29;83.67;95690.73;1741103;82;21005;-80
2022/02/01 03:44:24;;;;;;;93.95;42.60;;;;;;;-0.29;83.81;95695.03;1740805;82;21048;-80
2022/02/01 03:47:03;;;;;;;93.00;42.33;;;;;;;-0.33;83.79;95702.95;1741145;81;20961;-80
2022/02/01 03:49:31;;;;;;;81.60;39.70;;;;;;;-0.37;83.90;95693.11;1740099;82;20969;-80
2022/02/01 03:51:58;;;;;;;86.42;42.25;;;;;;;-0.33;84.00;95695.73;1740904;82;20965;-80
2022/02/01 03:54:28;;;;;;;75.80;38.20;;;;;;;-0.31;84.02;95686.23;1718678;82;21001;-80
2022/02/01 03:56:53;;;;;;;83.67;38.50;;;;;;;-0.27;83.98;95682.47;1740872;82;21031;-79
2022/02/01 03:59:21;;;;;;;76.47;38.90;;;;;;;-0.26;83.77;95687.09;1740893;82;20949;-80
2022/02/01 04:01:46;;;;;;;76.07;38.92;;;;;;;-0.30;83.82;95692.95;1741015;82;20977;-80
2022/02/01 04:04:13;;;;;;;78.02;37.58;;;;;;;-0.26;84.02;95694.29;1740775;82;21009;-79
2022/02/01 04:06:40;;;;;;;78.22;36.80;;;;;;;-0.27;83.83;95696.50;1740993;82;21000;-80
2022/02/01 04:09:06;;;;;;;72.42;34.70;;;;;;;-0.26;83.85;95696.84;1741103;82;21040;-80
2022/02/01 04:11:33;;;;;;;71.30;33.75;;;;;;;-0.24;83.72;95694.96;1740706;82;21383;-80
2022/02/01 04:13:59;;;;;;;71.60;36.42;;;;;;;-0.26;83.70;95693.02;1741015;81;20960;-80
2022/02/01 04:16:25;;;;;;;74.55;36.58;;;;;;;-0.24;83.77;95694.16;1741016;82;20953;-80
2022/02/01 04:18:51;;;;;;;81.02;36.58;;;;;;;-0.19;83.89;95689.45;1739010;82;20984;-81
2022/02/01 04:21:16;;;;;;;75.17;35.50;;;;;;;-0.15;83.73;95694.66;1740719;82;20960;-80
2022/02/01 04:23:42;;;;;;;79.77;41.00;;;;;;;-0.17;83.57;95693.95;1741060;82;20961;-80
2022/02/01 04:26:08;;;;;;;74.77;37.15;;;;;;;-0.27;83.49;95691.41;1741119;82;20972;-80
2022/02/01 04:28:33;;;;;;;83.78;38.88;;;;;;;-0.28;83.79;95696.17;1741008;82;21378;-80
2022/02/01 04:30:59;;;;;;;81.05;38.95;;;;;;;-0.30;83.90;95708.27;1741182;82;21023;-80
2022/02/01 04:33:27;;;;;;;77.08;39.23;;;;;;;-0.32;84.09;95710.95;1740942;82;21053;-80
2022/02/01 04:35:52;;;;;;;79.12;39.10;;;;;;;-0.33;84.10;95722.55;1738034;81;21044;-80
2022/02/01 04:38:18;;;;;;;74.90;37.88;;;;;;;-0.37;84.40;95730.94;1732943;82;20938;-80
2022/02/01 04:40:44;;;;;;;77.97;37.05;;;;;;;-0.46;84.37;95723.27;1733000;82;21351;-80
2022/02/01 04:43:11;;;;;;;81.05;39.20;;;;;;;-0.52;84.65;95736.06;1712332;83;20934;-80
2022/02/01 04:45:37;;;;;;;57.75;31.35;;;;;;;-0.61;85.09;95736.38;1732756;82;21017;-80
2022/02/01 04:48:03;;;;;;;69.37;36.28;;;;;;;-0.65;85.04;95741.88;1732853;82;20989;-80
2022/02/01 04:50:29;;;;;;;68.90;35.60;;;;;;;-0.72;84.80;95749.22;1712169;83;21412;-80
2022/02/01 04:52:55;;;;;;;72.30;37.20;;;;;;;-0.76;84.83;95750.88;1732851;83;20954;-80
2022/02/01 04:55:23;;;;;;;71.40;34.00;;;;;;;-0.77;84.95;95753.09;1733195;82;20950;-80
2022/02/01 04:57:58;;;;;;;66.77;35.05;;;;;;;-0.79;85.04;95758.80;1732956;83;21012;-80
2022/02/01 05:00:26;;;;;;;70.22;33.10;;;;;;;-0.78;84.93;95756.59;1732725;83;21029;-80
2022/02/01 05:02:54;;;;;;;68.97;32.88;;;;;;;-0.76;84.85;95759.81;1731908;83;20985;-80
2022/02/01 05:05:28;;;;;;;62.00;31.37;;;;;;;-0.74;84.82;95756.66;1732849;82;20981;-80
2022/02/01 05:07:52;;;;;;;62.05;29.60;;;;;;;-0.72;84.85;95757.34;1731812;83;21124;-80
2022/02/01 05:10:17;;;;;;;64.07;31.80;;;;;;;-0.73;84.67;95748.07;1732947;83;21001;-80
2022/02/01 05:12:43;;;;;;;58.10;31.10;;;;;;;-0.72;84.59;95756.06;1732942;82;21344;-80
2022/02/01 05:15:09;;;;;;;51.92;27.65;;;;;;;-0.71;84.43;95757.21;1712020;83;20918;-80
2022/02/01 05:17:41;;;;;;;56.02;29.18;;;;;;;-0.70;84.35;95761.38;1732704;83;20974;-80
2022/02/01 05:20:41;;;;;;;55.55;27.07;;;;;;;-0.68;84.43;95752.31;1732759;82;20946;-80
2022/02/01 05:22:41;;;;;;;58.83;29.12;;;;;;;-0.65;84.25;95760.55;1727678;83;20937;-80
2022/02/01 05:25:07;;;;;;;59.58;29.85;;;;;;;-0.63;84.20;95766.32;1732885;82;21028;-80
2022/02/01 05:27:33;;;;;;;67.15;29.75;;;;;;;-0.58;84.21;95772.31;1733005;83;21000;-80
2022/02/01 05:29:59;;;;;;;53.13;29.18;;;;;;;-0.52;84.24;95777.36;1732647;82;21432;-80
2022/02/01 05:32:25;;;;;;;57.73;30.57;;;;;;;-0.47;84.09;95787.55;1732842;83;20965;-80
2022/02/01 05:34:53;;;;;;;58.28;30.05;;;;;;;-0.45;84.07;95788.69;1732887;82;21059;-80
2022/02/01 05:37:19;;;;;;;58.38;28.45;;;;;;;-0.42;84.08;95796.89;1740251;82;21006;-80
2022/02/01 05:39:44;;;;;;;60.45;30.25;;;;;;;-0.41;83.99;95797.23;1740926;82;21006;-80
2022/02/01 05:42:14;;;;;;;54.63;28.38;;;;;;;-0.39;83.92;95798.38;1741027;82;21486;-80
2022/02/01 05:44:38;;;;;;;52.60;28.80;;;;;;;-0.60;83.81;95774.19;1740413;82;21049;-80
2022/02/01 05:47:04;;;;;;;57.25;27.07;;;;;;;-0.39;83.78;95814.97;1741049;82;21375;-80
2022/02/01 05:49:30;;;;;;;55.75;26.35;;;;;;;-0.38;83.79;95812.75;1739742;81;20933;-80
2022/02/01 05:52:01;;;;;;;47.98;26.12;;;;;;;-0.41;83.64;95817.64;1740921;82;21391;-80
2022/02/01 05:54:28;;;;;;;50.95;27.02;;;;;;;-0.44;83.57;95817.10;1740834;82;20941;-80
2022/02/01 05:56:54;;;;;;;59.13;29.07;;;;;;;-0.44;83.52;95814.55;1722291;82;20996;-80
2022/02/01 05:59:20;;;;;;;54.98;27.05;;;;;;;-0.42;83.49;95822.41;1724952;82;21268;-80
2022/02/01 06:01:46;;;;;;;55.58;28.25;;;;;;;-0.42;83.30;95821.61;1740545;82;21924;-80
2022/02/01 06:04:12;;;;;;;58.65;27.85;;;;;;;-0.44;83.26;95815.83;1740423;82;21115;-80
2022/02/01 06:06:37;;;;;;;49.73;25.80;;;;;;;-0.44;83.33;95823.02;1741012;82;21027;-81
2022/02/01 06:09:03;;;;;;;79.67;34.73;;;;;;;-0.43;83.28;95828.92;1740818;82;20944;-81
2022/02/01 06:11:29;;;;;;;72.32;33.83;;;;;;;-0.43;83.25;95831.48;1720162;82;20999;-82
2022/02/01 06:13:55;;;;;;;71.10;39.05;;;;;;;-0.43;83.25;95832.75;1740513;82;21040;-81
2022/02/01 06:16:21;;;;;;;88.62;45.35;;;;;;;-0.46;83.10;95831.73;1740572;82;21350;-81
2022/02/01 06:18:47;;;;;;;72.67;39.20;;;;;;;-0.47;83.16;95846.72;1740756;82;20922;-81
2022/02/01 06:21:12;;;;;;;58.15;33.98;;;;;;;-0.48;83.13;95841.27;1741045;82;21017;-82
2022/02/01 06:23:40;;;;;;;113.45;46.60;;;;;;;-0.47;83.18;95845.44;1740936;82;21320;-81
2022/02/01 06:26:05;;;;;;;55.38;27.20;;;;;;;-0.46;83.29;95851.69;1741006;82;20977;-81
2022/02/01 06:28:31;;;;;;;48.28;28.07;;;;;;;-0.46;83.11;95858.54;1719750;82;20957;-81
2022/02/01 06:30:57;;;;;;;54.67;30.50;;;;;;;-0.47;83.16;95859.01;1740635;82;20917;-81
2022/02/01 06:33:24;;;;;;;54.88;27.82;;;;;;;-0.47;83.21;95864.11;1740552;82;21036;-81
2022/02/01 06:35:49;;;;;;;72.85;31.55;;;;;;;-0.49;83.13;95867.26;1741419;82;20965;-81
2022/02/01 06:38:15;;;;;;;93.40;37.42;;;;;;;-0.48;83.14;95866.80;1745857;82;20956;-81
2022/02/01 06:40:42;;;;;;;47.55;24.92;;;;;;;-0.50;83.15;95869.91;1744671;81;20981;-81
2022/02/01 06:43:08;;;;;;;53.92;27.42;;;;;;;-0.52;83.20;95870.51;1740813;82;21039;-81
2022/02/01 06:45:34;;;;;;;88.62;36.48;;;;;;;-0.51;83.16;95864.47;1740924;82;21071;-81
2022/02/01 06:48:00;;;;;;;88.10;34.38;;;;;;;-0.50;83.13;95863.53;1719850;82;21382;-81
2022/02/01 06:50:27;;;;;;;56.48;29.18;;;;;;;-0.50;83.18;95866.89;1740870;82;20957;-81
2022/02/01 06:52:57;;;;;;;48.20;24.60;;;;;;;-0.50;83.16;95870.72;1740719;82;20968;-81
2022/02/01 06:58:14;;;;;;;82.35;44.67;;;;;;;-0.41;83.40;95860.23;1740836;81;20985;-81
2022/02/01 07:00:41;;;;;;;63.35;30.52;;;;;;;-0.40;83.14;95857.55;1740700;82;21016;-81
2022/02/01 07:03:07;;;;;;;62.78;32.55;;;;;;;-0.39;83.07;95860.44;1740869;82;20933;-81
2022/02/01 07:05:32;;;;;;;67.55;36.73;;;;;;;-0.36;83.15;95869.11;1740825;82;21053;-81
2022/02/01 07:07:58;;;;;;;81.92;43.38;;;;;;;-0.34;83.14;95870.27;1717381;82;20956;-81
2022/02/01 07:10:24;;;;;;;71.65;41.10;;;;;;;-0.33;83.13;95873.99;1740637;82;20988;-81
2022/02/01 07:12:49;;;;;;;53.20;28.70;;;;;;;-0.29;83.08;95875.81;1740868;82;20957;-81
2022/02/01 07:15:15;;;;;;;59.15;28.12;;;;;;;-0.26;83.07;95879.39;1741171;81;20937;-81
2022/02/01 07:17:49;;;;;;;74.92;33.13;;;;;;;-0.21;83.06;95883.63;1740986;82;21336;-81
2022/02/01 07:20:16;;;;;;;55.70;29.80;;;;;;;-0.15;83.10;95889.99;1740807;82;20965;-81
2022/02/01 07:22:43;;;;;;;57.05;28.50;;;;;;;-0.15;82.80;95897.66;1741029;82;20968;-81
2022/02/01 07:25:22;;;;;;;59.88;28.42;;;;;;;-0.16;82.75;95901.14;1740714;82;21032;-81
2022/02/01 07:27:47;;;;;;;97.35;41.05;;;;;;;-0.21;82.65;95902.78;1739572;82;20993;-81
2022/02/01 07:30:11;;;;;;;54.70;28.00;;;;;;;-0.25;82.69;95903.17;1740219;82;20997;-81
2022/02/01 07:32:38;;;;;;;53.45;29.05;;;;;;;-0.27;82.81;95907.60;1740947;82;21017;-81
2022/02/01 07:35:05;;;;;;;58.98;30.45;;;;;;;-0.26;82.92;95907.47;1718643;82;21004;-81
2022/02/01 07:37:31;;;;;;;58.85;30.05;;;;;;;-0.23;82.93;95919.98;1718707;82;21375;-81
2022/02/01 07:39:57;;;;;;;51.42;27.50;;;;;;;-0.29;82.57;95919.22;1740966;82;20992;-81
2022/02/01 07:42:22;;;;;;;58.33;28.15;;;;;;;-0.26;82.78;95920.70;1741088;81;20961;-81
2022/02/01 07:44:49;;;;;;;55.25;27.45;;;;;;;-0.28;82.58;95924.66;1740934;81;20997;-81
2022/02/01 07:47:21;;;;;;;50.60;25.52;;;;;;;-0.29;82.58;95925.60;1740963;82;20949;-81
2022/02/01 07:49:45;;;;;;;46.10;23.98;;;;;;;-0.27;82.42;95922.92;1726423;82;21005;-81
2022/02/01 07:52:12;;;;;;;48.90;26.30;;;;;;;-0.32;82.21;95925.86;1741053;82;21059;-81
2022/02/01 07:54:37;;;;;;;62.13;32.15;;;;;;;-0.31;82.35;95927.00;1741073;82;20933;-81
2022/02/01 07:57:06;;;;;;;64.12;33.10;;;;;;;-0.27;82.47;95926.75;1740950;82;20960;-81
2022/02/01 07:59:32;;;;;;;73.28;34.00;;;;;;;-0.29;82.50;95929.90;1741264;82;20958;-81
2022/02/01 08:01:58;;;;;;;77.82;36.98;;;;;;;-0.28;82.65;95927.22;1740894;82;20957;-81
2022/02/01 08:04:26;;;;;;;71.90;35.28;;;;;;;-0.26;82.70;95926.62;1740788;81;21419;-81
2022/02/01 08:06:51;;;;;;;75.00;36.38;;;;;;;-0.27;82.61;95929.30;1718721;82;21032;-81
2022/02/01 08:09:26;;;;;;;69.47;36.73;;;;;;;-0.25;82.74;95928.70;1726348;81;20989;-81
2022/02/01 08:11:46;;;;;;;78.97;41.80;;;;;;;-0.23;82.78;95934.02;1725223;82;21384;-81
2022/02/01 08:15:03;;;;;;;92.85;44.75;;;;;;;-0.25;82.72;95935.89;1718641;82;20925;-81
2022/02/01 08:17:01;;;;;;;83.17;41.58;;;;;;;-0.23;82.83;95945.98;1736856;82;20961;-81
2022/02/01 08:19:35;;;;;;;74.75;41.90;;;;;;;-0.21;83.02;95938.53;1740157;82;20957;-81
2022/02/01 08:21:51;;;;;;;78.07;40.95;;;;;;;-0.20;82.95;95937.59;1737286;82;20965;-81
2022/02/01 08:24:18;;;;;;;103.95;46.45;;;;;;;-0.11;83.12;95939.41;1740957;82;21416;-81
2022/02/01 08:26:44;;;;;;;72.55;36.20;;;;;;;-0.01;82.88;95934.32;1740714;82;20952;-81
2022/02/01 08:29:10;;;;;;;76.10;38.23;;;;;;;0.05;82.71;95931.75;1740966;82;20996;-81
2022/02/01 08:31:35;;;;;;;67.40;34.53;;;;;;;0.13;82.74;95927.59;1740886;82;21343;-81
2022/02/01 08:34:01;;;;;;;78.10;40.73;;;;;;;0.23;82.69;95927.64;1740855;82;21036;-81
2022/02/01 08:36:27;;;;;;;63.65;34.45;;;;;;;0.25;82.37;95927.05;1739298;82;21037;-81
2022/02/01 08:38:54;;;;;;;59.73;33.00;;;;;;;0.26;82.19;95923.08;1732855;82;21009;-81
2022/02/01 08:41:19;;;;;;;59.77;31.07;;;;;;;0.28;81.97;95935.73;1732878;82;21404;-81
2022/02/01 08:43:45;;;;;;;55.17;28.20;;;;;;;0.29;81.71;95926.65;1732815;82;21004;-81
2022/02/01 08:46:11;;;;;;;55.38;29.10;;;;;;;0.24;81.28;95927.98;1732870;82;21001;-81
2022/02/01 08:48:36;;;;;;;52.53;28.38;;;;;;;0.21;81.50;95929.52;1732851;82;21316;-81
2022/02/01 08:51:07;;;;;;;54.77;27.25;;;;;;;0.19;81.71;95931.41;1732782;82;20976;-81
2022/02/01 08:53:43;;;;;;;54.38;28.10;;;;;;;0.16;81.78;95932.48;1732373;83;21368;-81
2022/02/01 08:58:24;;;;;;;64.37;31.52;;;;;;;0.26;81.90;95933.30;1732899;82;21065;-81
2022/02/01 09:00:50;;;;;;;60.40;30.12;;;;;;;0.34;81.89;95940.34;1732798;83;21833;-81
2022/02/01 09:03:16;;;;;;;79.25;35.03;;;;;;;0.48;81.92;95950.17;1732752;82;21037;-81
2022/02/01 09:05:49;;;;;;;49.33;24.12;;;;;;;0.51;81.29;95943.55;1732888;82;21077;-81
2022/02/01 09:08:14;;;;;;;49.20;25.62;;;;;;;0.42;80.89;95946.06;1732898;83;20942;-81
2022/02/01 09:10:42;;;;;;;45.98;21.90;;;;;;;0.38;81.01;95948.08;1732494;83;21105;-81
2022/02/01 09:13:08;;;;;;;41.92;22.90;;;;;;;0.41;81.07;95951.64;1732865;83;20949;-81
2022/02/01 09:15:34;;;;;;;37.63;22.90;;;;;;;0.45;81.03;95949.16;1732370;83;21025;-81
2022/02/01 09:18:00;;;;;;;44.38;25.43;;;;;;;0.52;81.07;95954.11;1732745;82;21309;-81
2022/02/01 09:20:28;;;;;;;52.50;24.20;;;;;;;0.55;80.78;95962.80;1732677;83;20981;-82
2022/02/01 09:22:54;;;;;;;52.03;27.35;;;;;;;0.62;80.68;95962.27;1732557;83;21359;-81
2022/02/01 09:25:20;;;;;;;48.20;23.07;;;;;;;0.67;80.56;95961.42;1732670;82;20996;-81
2022/02/01 09:27:48;;;;;;;36.88;21.02;;;;;;;0.71;80.35;95960.22;1731171;81;21017;-81
2022/02/01 09:30:17;;;;;;;37.00;20.82;;;;;;;0.68;79.61;95965.12;1732388;83;21045;-81
2022/02/01 09:32:44;;;;;;;42.03;23.55;;;;;;;0.68;79.55;95964.31;1712231;83;20965;-81
2022/02/01 09:35:09;;;;;;;38.50;21.17;;;;;;;0.72;79.68;95966.47;1743459;82;20985;-81
2022/02/01 09:37:35;;;;;;;37.60;18.67;;;;;;;0.78;79.38;95963.85;1732944;82;21016;-81
2022/02/01 09:40:02;;;;;;;29.42;17.48;;;;;;;0.83;78.61;95963.01;1732980;83;20965;-81
2022/02/01 09:42:28;;;;;;;34.30;18.00;;;;;;;0.89;78.17;95963.75;1732651;82;21020;-81
2022/02/01 09:44:56;;;;;;;30.92;18.57;;;;;;;0.98;78.46;95966.00;1712340;83;21016;-81
2022/02/01 09:47:36;;;;;;;28.95;16.32;;;;;;;1.08;77.78;95965.52;1732784;82;20961;-81
2022/02/01 09:50:04;;;;;;;37.63;21.62;;;;;;;1.15;77.56;95955.10;1732899;83;21348;-81
2022/02/01 09:52:30;;;;;;;31.87;15.43;;;;;;;1.21;77.54;95940.48;1732604;82;20996;-81
2022/02/01 09:54:58;;;;;;;24.85;16.05;;;;;;;1.26;77.06;95945.19;1732784;82;21292;-81
2022/02/01 09:57:24;;;;;;;31.35;17.50;;;;;;;1.27;76.81;95949.36;1732603;82;21446;-81
2022/02/01 09:59:56;;;;;;;34.90;15.50;;;;;;;1.28;76.44;95947.94;1732759;82;21053;-81
2022/02/01 10:02:35;;;;;;;;;;;;;;;1.30;76.27;95950.36;1727277;83;20988;-81
2022/02/01 10:05:04;;;;;;;26.68;14.95;;;;;;;1.28;76.02;95945.85;1714193;82;20131;-81
2022/02/01 10:07:30;;;;;;;32.53;18.30;;;;;;;1.24;75.84;95940.20;1733128;82;21304;-81
2022/02/01 10:09:58;;;;;;;30.82;15.98;;;;;;;1.24;75.68;95937.64;1732825;82;21021;-81
2022/02/01 10:12:30;;;;;;;29.50;16.40;;;;;;;1.30;76.01;95948.64;1732607;83;21081;-81
2022/02/01 10:15:03;;;;;;;24.75;12.98;;;;;;;1.34;75.34;95953.82;1732702;82;21076;-81
2022/02/01 10:17:37;;;;;;;28.40;16.55;;;;;;;1.35;75.16;95950.79;1731831;82;21077;-81
2022/02/01 10:19:59;;;;;;;29.50;16.77;;;;;;;1.38;75.75;95954.35;1732177;82;20985;-81
2022/02/01 10:22:30;;;;;;;37.75;20.50;;;;;;;1.42;75.52;95959.05;1732535;82;20988;-81
2022/02/01 10:24:56;;;;;;;25.15;16.00;;;;;;;1.39;75.61;95952.13;1732604;82;21016;-81
2022/02/01 10:27:24;;;;;;;28.75;15.40;;;;;;;1.31;75.79;95952.81;1732610;82;21005;-81
2022/02/01 10:30:07;;;;;;;25.85;15.28;;;;;;;1.21;76.12;95941.76;1731692;81;21045;-81
2022/02/01 10:32:44;;;;;;;26.85;13.80;;;;;;;1.11;76.35;95941.74;1707129;84;21416;-81
2022/02/01 10:38:08;;;;;;;31.25;18.37;;;;;;;0.78;77.08;95942.11;1703340;84;21076;-81
2022/02/01 10:40:42;;;;;;;29.63;15.80;;;;;;;0.68;77.80;95949.78;1703493;84;21008;-81
2022/02/01 10:43:25;;;;;;;26.73;16.37;;;;;;;0.58;78.16;95951.02;1703552;84;21024;-81
2022/02/01 10:45:53;;;;;;;21.23;13.40;;;;;;;0.54;78.37;95947.12;1703544;84;21020;-81
2022/02/01 10:48:24;;;;;;;28.27;15.38;;;;;;;0.45;78.49;95940.69;1703780;84;21016;-81
2022/02/01 10:51:07;;;;;;;27.90;13.62;;;;;;;0.38;78.64;95934.49;1703535;84;21034;-81
2022/02/01 10:53:34;;;;;;;17.48;10.70;;;;;;;0.37;78.86;95931.13;1683566;84;20997;-81
2022/02/01 10:56:01;;;;;;;20.80;11.43;;;;;;;0.35;78.55;95931.73;1703841;83;20933;-81
2022/02/01 10:58:28;;;;;;;26.50;15.23;;;;;;;0.38;78.42;95928.10;1703607;84;21053;-81
2022/02/01 11:00:53;;;;;;;26.70;14.43;;;;;;;0.39;78.49;95925.41;1703760;84;21068;-81
2022/02/01 11:03:19;;;;;;;18.67;10.93;;;;;;;0.34;78.05;95926.75;1703557;83;21059;-81
2022/02/01 11:05:50;;;;;;;20.35;10.78;;;;;;;0.27;77.96;95929.80;1704079;83;21073;-81
2022/02/01 11:08:18;;;;;;;29.92;15.88;;;;;;;0.24;77.88;95926.70;1703580;84;20984;-81
2022/02/01 11:10:46;;;;;;;35.45;18.80;;;;;;;0.24;78.16;95912.19;1703737;84;21383;-81
2022/02/01 11:13:12;;;;;;;23.70;12.68;;;;;;;0.26;78.46;95905.19;1703806;84;21052;-81
2022/02/01 11:15:39;;;;;;;28.83;16.77;;;;;;;0.36;78.39;95905.70;1703552;84;21049;-81
2022/02/01 11:18:15;;;;;;;21.70;11.43;;;;;;;0.46;78.27;95898.85;1703639;83;21375;-81
2022/02/01 11:20:47;;;;;;;27.65;15.28;;;;;;;0.57;78.29;95898.75;1703762;84;21048;-81
2022/02/01 11:23:16;;;;;;;22.73;13.15;;;;;;;0.70;78.25;95898.03;1703188;84;21043;-81
2022/02/01 11:25:46;;;;;;;29.00;15.80;;;;;;;0.77;78.05;95890.63;1703444;84;21113;-81
2022/02/01 11:28:15;;;;;;;22.15;11.35;;;;;;;0.81;77.62;95884.30;1703835;84;21054;-81
2022/02/01 11:30:45;;;;;;;27.13;13.68;;;;;;;0.95;77.67;95891.58;1702817;84;21416;-81
2022/02/01 11:33:12;;;;;;;30.57;16.35;;;;;;;1.14;77.74;95885.20;1682316;84;20977;-81
2022/02/01 11:35:39;;;;;;;27.02;15.00;;;;;;;1.23;77.38;95878.45;1703879;83;21033;-81
2022/02/01 11:38:11;;;;;;;20.43;12.70;;;;;;;1.23;77.04;95870.77;1710628;83;21012;-81
2022/02/01 11:40:42;;;;;;;40.43;20.12;;;;;;;1.28;76.50;95863.95;1716164;83;20957;-81
2022/02/01 11:43:10;;;;;;;19.42;10.75;;;;;;;1.37;75.87;95868.27;1715097;83;21052;-81
2022/02/01 11:45:43;;;;;;;15.05;10.05;;;;;;;1.41;75.90;95869.13;1711532;84;21011;-81
2022/02/01 11:48:25;;;;;;;21.57;11.97;;;;;;;1.55;76.14;95861.48;1711334;83;21343;-81
2022/02/01 11:50:55;;;;;;;14.25;9.00;;;;;;;1.63;75.14;95856.96;1711476;84;21530;-81
2022/02/01 11:53:29;;;;;;;10.98;6.67;;;;;;;1.69;74.98;95864.88;1711491;84;21367;-81
2022/02/01 11:55:56;;;;;;;13.93;7.95;;;;;;;1.76;74.46;95862.08;1709855;84;20996;-81
2022/02/01 11:58:29;;;;;;;16.15;8.73;;;;;;;1.80;74.48;95856.23;1711494;83;21005;-81
2022/02/01 12:00:55;;;;;;;13.20;7.83;;;;;;;1.80;73.84;95849.36;1711595;83;21044;-81
2022/02/01 12:03:28;;;;;;;16.55;11.30;;;;;;;1.77;73.97;95843.20;1711326;83;21150;-81
2022/02/01 12:05:58;;;;;;;13.48;7.45;;;;;;;1.78;73.94;95847.37;1711386;83;21434;-81
2022/02/01 12:08:25;;;;;;;19.73;11.03;;;;;;;1.85;73.98;95843.80;1710924;84;21691;-81
2022/02/01 12:10:52;;;;;;;15.53;8.78;;;;;;;1.88;73.80;95845.27;1714830;84;21000;-81
2022/02/01 12:13:22;;;;;;;15.48;8.50;;;;;;;1.90;73.70;95836.48;1711295;83;21041;-81
2022/02/01 12:15:50;;;;;;;15.75;9.23;;;;;;;1.95;73.83;95827.92;1711489;84;21011;-81
2022/02/01 12:18:55;;;;;;;15.72;8.53;;;;;;;2.01;73.34;95818.38;1711331;83;21007;-81
2022/02/01 12:21:31;;;;;;;12.75;6.95;;;;;;;2.02;73.17;95814.06;1711426;84;21024;-81
2022/02/01 12:24:00;;;;;;;10.30;5.70;;;;;;;2.03;72.61;95811.83;1667732;84;20949;-81
2022/02/01 12:26:34;;;;;;;10.53;5.65;;;;;;;2.04;72.69;95809.59;1711401;83;20996;-81
2022/02/01 12:29:03;;;;;;;12.40;7.10;;;;;;;2.02;72.28;95817.90;1711560;83;21000;-81
2022/02/01 12:31:31;;;;;;;10.78;7.17;;;;;;;1.97;72.53;95814.49;1711619;84;21059;-82
2022/02/01 12:33:59;;;;;;;11.00;6.35;;;;;;;2.00;72.71;95812.11;1711411;84;21061;-81
2022/02/01 12:36:29;;;;;;;8.95;5.97;;;;;;;2.00;72.62;95812.11;1711240;83;21091;-81
2022/02/01 12:46:55;;;;;;;11.88;6.08;;;;;;;1.92;72.06;95806.88;1703933;84;21067;-81
2022/02/01 12:49:41;;;;;;;10.82;6.00;;;;;;;1.89;71.97;95808.45;1725067;83;21387;-81
2022/02/01 12:52:28;;;;;;;9.88;5.80;;;;;;;1.87;71.91;95800.91;1732707;83;20971;-81